sensor_id;sensor_type;location;lat;lon;timestamp;pressure;altitude;pressure_sealevel;temperature;humidity
21869;BME280;11099;41.564;23.296;2023-06-24T00:02:16;97469.91;;;23.98;100.00
21869;BME280;11099;41.564;23.296;2023-06-24T00:04:42;97576.69;;;24.97;98.08
21869;BME280;11099;41.564;23.296;2023-06-24T00:07:07;97446.88;;;24.17;98.23
21869;BME280;11099;41.564;23.296;2023-06-24T00:09:33;97461.06;;;23.76;99.84
21869;BME280;11099;41.564;23.296;2023-06-24T00:11:59;97510.59;;;24.23;99.93
21869;BME280;11099;41.564;23.296;2023-06-24T00:14:26;97545.19;;;24.15;100.00
21869;BME280;11099;41.564;23.296;2023-06-24T00:16:52;97598.38;;;24.41;100.00
21869;BME280;11099;41.564;23.296;2023-06-24T00:19:25;97550.25;;;24.17;100.00
21869;BME280;11099;41.564;23.296;2023-06-24T00:21:52;97611.81;;;24.77;100.00
21869;BME280;11099;41.564;23.296;2023-06-24T00:24:19;97603.16;;;24.96;99.90
21869;BME280;11099;41.564;23.296;2023-06-24T00:29:29;97539.38;;;25.42;94.23
21869;BME280;11099;41.564;23.296;2023-06-24T00:31:55;97558.28;;;25.19;96.87
21869;BME280;11099;41.564;23.296;2023-06-24T00:34:20;97500.88;;;24.22;100.00
21869;BME280;11099;41.564;23.296;2023-06-24T00:36:46;97582.91;;;24.94;100.00
21869;BME280;11099;41.564;23.296;2023-06-24T00:39:15;97421.47;;;23.61;100.00
21869;BME280;11099;41.564;23.296;2023-06-24T00:41:41;97493.09;;;24.24;99.33
21869;BME280;11099;41.564;23.296;2023-06-24T00:44:06;97587.06;;;25.20;97.86
21869;BME280;11099;41.564;23.296;2023-06-24T00:46:32;97474.75;;;24.42;98.02
21869;BME280;11099;41.564;23.296;2023-06-24T00:48:58;97587.09;;;25.16;97.66
21869;BME280;11099;41.564;23.296;2023-06-24T00:51:25;97502.00;;;24.28;99.96
21869;BME280;11099;41.564;23.296;2023-06-24T00:53:59;97559.53;;;25.07;97.25
21869;BME280;11099;41.564;23.296;2023-06-24T00:56:35;97548.94;;;24.54;100.00
21869;BME280;11099;41.564;23.296;2023-06-24T00:59:04;97524.09;;;24.44;99.58
21869;BME280;11099;41.564;23.296;2023-06-24T01:01:33;97562.97;;;24.49;100.00
21869;BME280;11099;41.564;23.296;2023-06-24T01:04:01;97569.53;;;24.62;100.00
21869;BME280;11099;41.564;23.296;2023-06-24T01:06:30;97481.50;;;24.09;100.00
21869;BME280;11099;41.564;23.296;2023-06-24T01:09:00;97572.25;;;24.62;100.00
21869;BME280;11099;41.564;23.296;2023-06-24T01:11:28;97487.91;;;23.49;100.00
21869;BME280;11099;41.564;23.296;2023-06-24T01:13:54;97567.28;;;24.28;100.00
21869;BME280;11099;41.564;23.296;2023-06-24T01:16:35;97479.09;;;24.29;100.00
21869;BME280;11099;41.564;23.296;2023-06-24T01:32:31;97560.31;;;24.31;100.00
21869;BME280;11099;41.564;23.296;2023-06-24T01:35:03;97520.44;;;23.88;100.00
21869;BME280;11099;41.564;23.296;2023-06-24T01:37:42;97502.13;;;24.07;100.00
21869;BME280;11099;41.564;23.296;2023-06-24T01:40:26;97575.81;;;24.44;100.00
21869;BME280;11099;41.564;23.296;2023-06-24T01:42:52;97569.28;;;24.21;100.00
21869;BME280;11099;41.564;23.296;2023-06-24T01:45:24;97584.03;;;24.23;100.00
21869;BME280;11099;41.564;23.296;2023-06-24T01:47:58;97582.94;;;24.03;100.00
21869;BME280;11099;41.564;23.296;2023-06-24T01:50:25;97441.78;;;23.17;100.00
21869;BME280;11099;41.564;23.296;2023-06-24T01:52:53;97433.66;;;22.99;100.00
21869;BME280;11099;41.564;23.296;2023-06-24T01:55:21;97484.81;;;23.22;100.00
21869;BME280;11099;41.564;23.296;2023-06-24T01:57:48;97551.94;;;23.72;100.00
21869;BME280;11099;41.564;23.296;2023-06-24T02:00:15;97510.34;;;23.78;100.00
21869;BME280;11099;41.564;23.296;2023-06-24T02:02:43;97578.16;;;24.32;100.00
21869;BME280;11099;41.564;23.296;2023-06-24T02:05:11;97527.47;;;23.57;100.00
21869;BME280;11099;41.564;23.296;2023-06-24T02:07:37;97500.75;;;23.13;100.00
21869;BME280;11099;41.564;23.296;2023-06-24T02:10:05;97572.13;;;23.71;100.00
21869;BME280;11099;41.564;23.296;2023-06-24T02:12:32;97491.38;;;23.50;100.00
21869;BME280;11099;41.564;23.296;2023-06-24T02:14:59;97532.94;;;23.47;100.00
21869;BME280;11099;41.564;23.296;2023-06-24T02:17:25;97500.31;;;23.39;100.00
21869;BME280;11099;41.564;23.296;2023-06-24T02:19:55;97533.69;;;23.76;100.00
21869;BME280;11099;41.564;23.296;2023-06-24T02:22:22;97547.63;;;23.78;100.00
21869;BME280;11099;41.564;23.296;2023-06-24T02:24:49;97567.41;;;23.96;100.00
21869;BME280;11099;41.564;23.296;2023-06-24T02:27:16;97394.47;;;23.04;100.00
21869;BME280;11099;41.564;23.296;2023-06-24T02:29:42;97558.78;;;24.19;100.00
21869;BME280;11099;41.564;23.296;2023-06-24T02:32:08;97526.25;;;23.83;100.00
21869;BME280;11099;41.564;23.296;2023-06-24T02:34:34;97432.09;;;22.95;100.00
21869;BME280;11099;41.564;23.296;2023-06-24T02:37:00;97458.81;;;23.32;100.00
21869;BME280;11099;41.564;23.296;2023-06-24T02:39:25;97503.78;;;23.79;100.00
21869;BME280;11099;41.564;23.296;2023-06-24T02:41:51;97536.31;;;24.04;99.46
21869;BME280;11099;41.564;23.296;2023-06-24T02:44:16;97589.13;;;24.14;100.00
21869;BME280;11099;41.564;23.296;2023-06-24T02:46:43;97485.56;;;22.62;100.00
21869;BME280;11099;41.564;23.296;2023-06-24T02:49:12;97621.41;;;23.30;100.00
21869;BME280;11099;41.564;23.296;2023-06-24T02:51:39;97496.03;;;22.67;100.00
21869;BME280;11099;41.564;23.296;2023-06-24T02:54:06;97546.03;;;22.62;100.00
21869;BME280;11099;41.564;23.296;2023-06-24T02:56:32;97605.47;;;23.07;100.00
21869;BME280;11099;41.564;23.296;2023-06-24T02:58:58;97599.28;;;23.10;100.00
21869;BME280;11099;41.564;23.296;2023-06-24T03:01:23;97499.03;;;22.16;100.00
21869;BME280;11099;41.564;23.296;2023-06-24T03:03:55;97615.56;;;23.13;100.00
21869;BME280;11099;41.564;23.296;2023-06-24T03:08:48;97610.13;;;23.17;100.00
21869;BME280;11099;41.564;23.296;2023-06-24T03:11:14;97613.25;;;23.33;100.00
21869;BME280;11099;41.564;23.296;2023-06-24T03:13:40;97513.94;;;22.97;100.00
21869;BME280;11099;41.564;23.296;2023-06-24T03:16:06;97502.28;;;23.10;100.00
21869;BME280;11099;41.564;23.296;2023-06-24T03:18:41;97615.56;;;24.03;100.00
21869;BME280;11099;41.564;23.296;2023-06-24T03:21:08;97497.63;;;23.29;100.00
21869;BME280;11099;41.564;23.296;2023-06-24T03:23:33;97557.69;;;24.02;100.00
21869;BME280;11099;41.564;23.296;2023-06-24T03:25:59;97620.53;;;24.33;100.00
21869;BME280;11099;41.564;23.296;2023-06-24T03:28:24;97485.56;;;23.69;100.00
21869;BME280;11099;41.564;23.296;2023-06-24T03:30:50;97532.09;;;23.85;100.00
21869;BME280;11099;41.564;23.296;2023-06-24T03:33:15;97494.84;;;23.72;100.00
21869;BME280;11099;41.564;23.296;2023-06-24T03:35:42;97637.44;;;24.83;99.91
21869;BME280;11099;41.564;23.296;2023-06-24T03:38:08;97548.63;;;24.41;98.23
21869;BME280;11099;41.564;23.296;2023-06-24T03:40:34;97561.84;;;24.39;97.38
21869;BME280;11099;41.564;23.296;2023-06-24T03:42:59;97629.59;;;24.96;96.55
21869;BME280;11099;41.564;23.296;2023-06-24T03:45:25;97601.28;;;24.83;96.03
21869;BME280;11099;41.564;23.296;2023-06-24T03:47:50;97618.41;;;25.46;94.22
21869;BME280;11099;41.564;23.296;2023-06-24T03:50:16;97542.91;;;24.87;95.17
21869;BME280;11099;41.564;23.296;2023-06-24T03:52:41;97618.66;;;25.59;93.95
21869;BME280;11099;41.564;23.296;2023-06-24T03:55:09;97520.91;;;25.19;91.86
21869;BME280;11099;41.564;23.296;2023-06-24T03:57:34;97597.16;;;26.47;86.95
21869;BME280;11099;41.564;23.296;2023-06-24T04:00:00;97636.00;;;26.92;88.51
21869;BME280;11099;41.564;23.296;2023-06-24T04:02:25;97574.44;;;26.23;90.13
21869;BME280;11099;41.564;23.296;2023-06-24T04:04:52;97657.09;;;27.19;87.85
21869;BME280;11099;41.564;23.296;2023-06-24T04:07:17;97636.00;;;27.19;85.73
21869;BME280;11099;41.564;23.296;2023-06-24T04:09:55;97644.28;;;27.16;87.72
21869;BME280;11099;41.564;23.296;2023-06-24T04:12:21;97646.91;;;26.62;89.42
21869;BME280;11099;41.564;23.296;2023-06-24T04:14:46;97638.06;;;26.13;94.84
21869;BME280;11099;41.564;23.296;2023-06-24T04:17:12;97546.94;;;25.24;95.85
21869;BME280;11099;41.564;23.296;2023-06-24T04:19:37;97550.09;;;26.36;90.76
21869;BME280;11099;41.564;23.296;2023-06-24T04:22:04;97626.22;;;28.16;84.38
21869;BME280;11099;41.564;23.296;2023-06-24T04:24:30;97646.59;;;27.68;86.58
21869;BME280;11099;41.564;23.296;2023-06-24T04:26:55;97626.47;;;27.81;86.60
21869;BME280;11099;41.564;23.296;2023-06-24T04:29:21;97519.81;;;26.57;88.23
21869;BME280;11099;41.564;23.296;2023-06-24T04:31:46;97561.16;;;28.23;82.71
21869;BME280;11099;41.564;23.296;2023-06-24T04:34:12;97553.03;;;28.40;79.37
21869;BME280;11099;41.564;23.296;2023-06-24T04:36:37;97534.56;;;27.84;80.54
21869;BME280;11099;41.564;23.296;2023-06-24T04:39:04;97561.41;;;28.52;77.96
21869;BME280;11099;41.564;23.296;2023-06-24T04:41:29;97599.00;;;29.04;74.28
21869;BME280;11099;41.564;23.296;2023-06-24T04:43:55;97553.47;;;28.74;75.75
21869;BME280;11099;41.564;23.296;2023-06-24T04:46:20;97521.38;;;27.79;77.91
21869;BME280;11099;41.564;23.296;2023-06-24T04:48:47;97554.09;;;28.06;76.04
21869;BME280;11099;41.564;23.296;2023-06-24T04:51:12;97597.25;;;28.18;76.65
21869;BME280;11099;41.564;23.296;2023-06-24T04:53:38;97584.63;;;27.34;81.49
21869;BME280;11099;41.564;23.296;2023-06-24T04:56:03;97566.09;;;26.95;82.92
21869;BME280;11099;41.564;23.296;2023-06-24T04:58:28;97566.25;;;27.11;83.40
21869;BME280;11099;41.564;23.296;2023-06-24T05:00:54;97590.03;;;27.14;84.21
21869;BME280;11099;41.564;23.296;2023-06-24T05:03:19;97639.78;;;27.52;83.54
21869;BME280;11099;41.564;23.296;2023-06-24T05:05:45;97579.47;;;27.63;84.03
21869;BME280;11099;41.564;23.296;2023-06-24T05:08:10;97633.16;;;28.44;82.73
21869;BME280;11099;41.564;23.296;2023-06-24T05:10:36;97527.84;;;27.89;81.25
21869;BME280;11099;41.564;23.296;2023-06-24T05:13:01;97686.38;;;28.82;82.22
21869;BME280;11099;41.564;23.296;2023-06-24T05:15:27;97544.03;;;27.79;82.97
21869;BME280;11099;41.564;23.296;2023-06-24T05:17:52;97598.47;;;28.93;79.02
21869;BME280;11099;41.564;23.296;2023-06-24T05:20:18;97703.72;;;29.32;77.85
21869;BME280;11099;41.564;23.296;2023-06-24T05:22:43;97692.44;;;29.46;78.86
21869;BME280;11099;41.564;23.296;2023-06-24T05:25:09;97594.84;;;29.65;72.85
21869;BME280;11099;41.564;23.296;2023-06-24T05:27:34;97676.97;;;30.63;70.66
21869;BME280;11099;41.564;23.296;2023-06-24T05:30:00;97549.53;;;28.39;76.02
21869;BME280;11099;41.564;23.296;2023-06-24T05:32:25;97596.22;;;28.88;74.45
21869;BME280;11099;41.564;23.296;2023-06-24T05:34:51;97683.19;;;29.24;74.33
21869;BME280;11099;41.564;23.296;2023-06-24T05:37:16;97571.38;;;28.43;75.53
21869;BME280;11099;41.564;23.296;2023-06-24T05:39:42;97607.56;;;28.30;76.92
21869;BME280;11099;41.564;23.296;2023-06-24T05:42:07;97689.75;;;28.27;78.44
21869;BME280;11099;41.564;23.296;2023-06-24T05:44:33;97705.00;;;29.80;73.22
21869;BME280;11099;41.564;23.296;2023-06-24T05:46:59;97592.94;;;28.41;74.67
21869;BME280;11099;41.564;23.296;2023-06-24T05:49:24;97617.75;;;28.50;75.81
21869;BME280;11099;41.564;23.296;2023-06-24T05:51:50;97647.31;;;28.39;78.11
21869;BME280;11099;41.564;23.296;2023-06-24T05:54:15;97577.94;;;28.45;75.30
21869;BME280;11099;41.564;23.296;2023-06-24T05:56:41;97672.81;;;28.35;75.46
21869;BME280;11099;41.564;23.296;2023-06-24T05:59:12;97615.22;;;29.31;75.19
21869;BME280;11099;41.564;23.296;2023-06-24T06:01:41;97600.66;;;29.34;74.24
21869;BME280;11099;41.564;23.296;2023-06-24T06:04:15;97652.91;;;29.27;74.57
21869;BME280;11099;41.564;23.296;2023-06-24T06:06:43;97585.38;;;29.50;70.56
21869;BME280;11099;41.564;23.296;2023-06-24T06:09:10;97583.34;;;29.37;70.35
21869;BME280;11099;41.564;23.296;2023-06-24T06:11:38;97612.53;;;30.38;66.71
21869;BME280;11099;41.564;23.296;2023-06-24T06:14:06;97565.34;;;30.82;65.71
21869;BME280;11099;41.564;23.296;2023-06-24T06:16:42;97643.69;;;30.61;69.08
21869;BME280;11099;41.564;23.296;2023-06-24T06:19:10;97612.13;;;31.67;62.72
21869;BME280;11099;41.564;23.296;2023-06-24T06:21:41;97570.16;;;31.41;62.08
21869;BME280;11099;41.564;23.296;2023-06-24T06:24:07;97635.38;;;31.54;65.17
21869;BME280;11099;41.564;23.296;2023-06-24T06:26:32;97586.69;;;30.07;68.80
21869;BME280;11099;41.564;23.296;2023-06-24T06:28:58;97537.88;;;29.85;68.25
21869;BME280;11099;41.564;23.296;2023-06-24T06:31:23;97647.78;;;30.11;72.19
21869;BME280;11099;41.564;23.296;2023-06-24T06:33:51;97614.75;;;29.53;74.40
21869;BME280;11099;41.564;23.296;2023-06-24T06:36:16;97613.81;;;29.88;70.25
21869;BME280;11099;41.564;23.296;2023-06-24T06:38:42;97610.16;;;29.13;74.00
21869;BME280;11099;41.564;23.296;2023-06-24T06:41:07;97634.84;;;30.53;68.29
21869;BME280;11099;41.564;23.296;2023-06-24T06:43:33;97657.50;;;31.12;66.76
21869;BME280;11099;41.564;23.296;2023-06-24T06:45:59;97587.47;;;30.07;66.93
21869;BME280;11099;41.564;23.296;2023-06-24T06:48:24;97631.00;;;30.22;67.70
21869;BME280;11099;41.564;23.296;2023-06-24T06:50:50;97559.22;;;30.23;65.63
21869;BME280;11099;41.564;23.296;2023-06-24T06:53:17;97635.59;;;30.41;67.11
21869;BME280;11099;41.564;23.296;2023-06-24T06:55:43;97650.78;;;30.58;70.56
21869;BME280;11099;41.564;23.296;2023-06-24T06:58:09;97636.69;;;30.98;68.71
21869;BME280;11099;41.564;23.296;2023-06-24T07:00:34;97585.69;;;30.84;67.44
21869;BME280;11099;41.564;23.296;2023-06-24T07:03:00;97634.25;;;30.75;70.28
21869;BME280;11099;41.564;23.296;2023-06-24T07:05:26;97579.88;;;30.82;69.13
21869;BME280;11099;41.564;23.296;2023-06-24T07:07:51;97539.38;;;30.57;66.68
21869;BME280;11099;41.564;23.296;2023-06-24T07:10:19;97658.72;;;31.62;63.58
21869;BME280;11099;41.564;23.296;2023-06-24T07:12:45;97569.19;;;31.10;60.90
21869;BME280;11099;41.564;23.296;2023-06-24T07:15:11;97551.25;;;29.83;65.03
21869;BME280;11099;41.564;23.296;2023-06-24T07:17:37;97530.38;;;30.95;64.82
21869;BME280;11099;41.564;23.296;2023-06-24T07:20:03;97565.75;;;31.31;59.85
21869;BME280;11099;41.564;23.296;2023-06-24T07:22:29;97588.78;;;30.99;64.76
21869;BME280;11099;41.564;23.296;2023-06-24T07:24:56;97603.28;;;31.38;61.20
21869;BME280;11099;41.564;23.296;2023-06-24T07:27:22;97617.25;;;31.31;62.57
21869;BME280;11099;41.564;23.296;2023-06-24T07:29:48;97585.84;;;30.64;65.14
21869;BME280;11099;41.564;23.296;2023-06-24T07:32:13;97555.63;;;30.52;65.04
21869;BME280;11099;41.564;23.296;2023-06-24T07:34:39;97548.00;;;30.30;66.05
21869;BME280;11099;41.564;23.296;2023-06-24T07:37:05;97631.28;;;30.69;66.45
21869;BME280;11099;41.564;23.296;2023-06-24T07:39:31;97572.13;;;30.52;66.75
21869;BME280;11099;41.564;23.296;2023-06-24T07:41:57;97646.72;;;30.21;70.01
21869;BME280;11099;41.564;23.296;2023-06-24T07:44:23;97633.63;;;30.41;66.29
21869;BME280;11099;41.564;23.296;2023-06-24T07:46:48;97512.00;;;30.41;63.43
21869;BME280;11099;41.564;23.296;2023-06-24T07:49:16;97531.38;;;31.01;59.81
21869;BME280;11099;41.564;23.296;2023-06-24T07:51:42;97505.88;;;30.88;59.10
21869;BME280;11099;41.564;23.296;2023-06-24T07:54:10;97518.19;;;30.83;58.30
21869;BME280;11099;41.564;23.296;2023-06-24T07:56:39;97628.53;;;31.71;58.86
21869;BME280;11099;41.564;23.296;2023-06-24T07:59:04;97444.84;;;30.55;59.68
21869;BME280;11099;41.564;23.296;2023-06-24T08:01:30;97561.63;;;31.61;59.84
21869;BME280;11099;41.564;23.296;2023-06-24T08:03:56;97531.69;;;31.29;60.05
21869;BME280;11099;41.564;23.296;2023-06-24T08:06:21;97470.38;;;30.81;60.57
21869;BME280;11099;41.564;23.296;2023-06-24T08:08:47;97588.59;;;31.66;59.41
21869;BME280;11099;41.564;23.296;2023-06-24T08:11:13;97583.72;;;31.83;60.43
21869;BME280;11099;41.564;23.296;2023-06-24T08:13:39;97548.81;;;30.56;61.50
21869;BME280;11099;41.564;23.296;2023-06-24T08:16:05;97589.66;;;30.83;61.50
21869;BME280;11099;41.564;23.296;2023-06-24T08:18:30;97575.41;;;30.59;63.70
21869;BME280;11099;41.564;23.296;2023-06-24T08:20:57;97618.44;;;31.04;65.01
21869;BME280;11099;41.564;23.296;2023-06-24T08:23:22;97623.75;;;31.37;65.33
21869;BME280;11099;41.564;23.296;2023-06-24T08:25:48;97530.69;;;30.97;61.54
21869;BME280;11099;41.564;23.296;2023-06-24T08:28:14;97606.72;;;31.89;62.08
21869;BME280;11099;41.564;23.296;2023-06-24T08:30:39;97506.09;;;30.93;63.82
21869;BME280;11099;41.564;23.296;2023-06-24T08:33:05;97588.38;;;31.61;62.51
21869;BME280;11099;41.564;23.296;2023-06-24T08:35:31;97540.41;;;30.89;63.98
21869;BME280;11099;41.564;23.296;2023-06-24T08:37:56;97603.06;;;31.07;64.49
21869;BME280;11099;41.564;23.296;2023-06-24T08:40:22;97564.03;;;30.99;63.47
21869;BME280;11099;41.564;23.296;2023-06-24T08:42:48;97575.47;;;30.85;65.13
21869;BME280;11099;41.564;23.296;2023-06-24T08:45:14;97495.31;;;30.61;62.57
21869;BME280;11099;41.564;23.296;2023-06-24T08:47:40;97577.44;;;31.35;61.68
21869;BME280;11099;41.564;23.296;2023-06-24T08:50:13;97541.91;;;31.63;60.91
21869;BME280;11099;41.564;23.296;2023-06-24T08:52:51;97519.22;;;31.37;59.42
21869;BME280;11099;41.564;23.296;2023-06-24T08:55:23;97551.16;;;31.82;59.86
21869;BME280;11099;41.564;23.296;2023-06-24T08:57:49;97472.78;;;31.39;59.53
21869;BME280;11099;41.564;23.296;2023-06-24T09:00:15;97543.00;;;32.00;58.38
21869;BME280;11099;41.564;23.296;2023-06-24T09:02:42;97569.06;;;32.30;60.52
21869;BME280;11099;41.564;23.296;2023-06-24T09:05:08;97559.13;;;32.33;58.24
21869;BME280;11099;41.564;23.296;2023-06-24T09:07:34;97564.94;;;32.57;57.34
21869;BME280;11099;41.564;23.296;2023-06-24T09:10:00;97532.63;;;32.26;56.10
21869;BME280;11099;41.564;23.296;2023-06-24T09:12:26;97528.75;;;32.36;55.97
21869;BME280;11099;41.564;23.296;2023-06-24T09:14:51;97529.50;;;32.15;57.52
21869;BME280;11099;41.564;23.296;2023-06-24T09:17:18;97556.19;;;32.05;60.20
21869;BME280;11099;41.564;23.296;2023-06-24T09:19:44;97528.75;;;31.92;58.23
21869;BME280;11099;41.564;23.296;2023-06-24T09:22:10;97516.13;;;31.69;58.34
21869;BME280;11099;41.564;23.296;2023-06-24T09:24:43;97494.97;;;31.79;57.84
21869;BME280;11099;41.564;23.296;2023-06-24T09:27:16;97559.97;;;32.20;56.98
21869;BME280;11099;41.564;23.296;2023-06-24T09:29:44;97557.44;;;32.57;53.83
21869;BME280;11099;41.564;23.296;2023-06-24T09:32:10;97514.50;;;32.38;57.59
21869;BME280;11099;41.564;23.296;2023-06-24T09:34:36;97475.03;;;32.19;55.12
21869;BME280;11099;41.564;23.296;2023-06-24T09:37:01;97498.72;;;32.69;54.07
21869;BME280;11099;41.564;23.296;2023-06-24T09:39:27;97459.50;;;32.65;54.72
21869;BME280;11099;41.564;23.296;2023-06-24T09:42:00;97537.44;;;32.97;53.81
21869;BME280;11099;41.564;23.296;2023-06-24T09:44:27;97506.94;;;33.00;51.74
21869;BME280;11099;41.564;23.296;2023-06-24T09:46:54;97502.53;;;33.03;52.65
21869;BME280;11099;41.564;23.296;2023-06-24T09:49:23;97545.00;;;33.15;53.09
21869;BME280;11099;41.564;23.296;2023-06-24T09:51:53;97448.16;;;32.54;52.96
21869;BME280;11099;41.564;23.296;2023-06-24T09:54:21;97557.47;;;32.88;53.78
21869;BME280;11099;41.564;23.296;2023-06-24T09:56:50;97519.31;;;32.87;55.19
21869;BME280;11099;41.564;23.296;2023-06-24T09:59:17;97560.78;;;33.14;54.63
21869;BME280;11099;41.564;23.296;2023-06-24T10:01:52;97555.16;;;33.36;52.38
21869;BME280;11099;41.564;23.296;2023-06-24T10:04:18;97555.53;;;33.07;55.88
21869;BME280;11099;41.564;23.296;2023-06-24T10:06:45;97515.75;;;33.26;55.16
21869;BME280;11099;41.564;23.296;2023-06-24T10:09:10;97522.03;;;33.36;53.92
21869;BME280;11099;41.564;23.296;2023-06-24T10:11:39;97545.00;;;33.33;54.23
21869;BME280;11099;41.564;23.296;2023-06-24T10:14:04;97484.47;;;33.20;51.90
21869;BME280;11099;41.564;23.296;2023-06-24T10:16:30;97489.41;;;33.44;52.55
21869;BME280;11099;41.564;23.296;2023-06-24T10:19:03;97531.81;;;33.28;52.12
21869;BME280;11099;41.564;23.296;2023-06-24T10:21:50;97513.63;;;33.76;50.60
21869;BME280;11099;41.564;23.296;2023-06-24T10:24:33;97505.06;;;33.65;52.36
21869;BME280;11099;41.564;23.296;2023-06-24T10:29:34;97503.34;;;33.77;52.60
21869;BME280;11099;41.564;23.296;2023-06-24T10:32:04;97485.72;;;33.56;53.13
21869;BME280;11099;41.564;23.296;2023-06-24T10:34:43;97507.81;;;33.74;52.31
21869;BME280;11099;41.564;23.296;2023-06-24T10:37:18;97496.19;;;33.52;52.04
21869;BME280;11099;41.564;23.296;2023-06-24T10:39:57;97458.28;;;33.71;53.61
21869;BME280;11099;41.564;23.296;2023-06-24T10:44:50;97479.72;;;33.30;54.20
21869;BME280;11099;41.564;23.296;2023-06-24T10:47:16;97390.06;;;32.89;53.83
21869;BME280;11099;41.564;23.296;2023-06-24T10:52:26;97434.03;;;33.38;55.21
21869;BME280;11099;41.564;23.296;2023-06-24T10:54:52;97420.91;;;33.42;51.78
21869;BME280;11099;41.564;23.296;2023-06-24T10:57:23;97445.41;;;33.59;54.26
21869;BME280;11099;41.564;23.296;2023-06-24T10:59:50;97429.63;;;33.68;52.61
21869;BME280;11099;41.564;23.296;2023-06-24T11:02:23;97446.09;;;34.05;53.88
21869;BME280;11099;41.564;23.296;2023-06-24T11:04:59;97447.66;;;33.88;51.47
21869;BME280;11099;41.564;23.296;2023-06-24T11:07:27;97392.28;;;33.91;52.11
21869;BME280;11099;41.564;23.296;2023-06-24T11:09:55;97441.50;;;34.11;52.30
21869;BME280;11099;41.564;23.296;2023-06-24T11:12:27;97404.13;;;33.73;53.51
21869;BME280;11099;41.564;23.296;2023-06-24T11:14:56;97399.88;;;33.54;53.99
21869;BME280;11099;41.564;23.296;2023-06-24T11:17:23;97430.06;;;33.67;53.39
21869;BME280;11099;41.564;23.296;2023-06-24T11:19:49;97424.38;;;33.79;52.49
21869;BME280;11099;41.564;23.296;2023-06-24T11:22:15;97415.00;;;33.77;52.25
21869;BME280;11099;41.564;23.296;2023-06-24T11:24:41;97351.28;;;33.47;51.02
21869;BME280;11099;41.564;23.296;2023-06-24T11:27:07;97362.78;;;33.46;52.16
21869;BME280;11099;41.564;23.296;2023-06-24T11:29:33;97383.53;;;33.83;53.27
21869;BME280;11099;41.564;23.296;2023-06-24T11:32:01;97379.56;;;33.85;53.03
21869;BME280;11099;41.564;23.296;2023-06-24T11:34:27;97391.84;;;33.93;54.10
21869;BME280;11099;41.564;23.296;2023-06-24T11:36:52;97341.78;;;33.48;53.71
21869;BME280;11099;41.564;23.296;2023-06-24T11:39:26;97337.56;;;33.80;52.35
21869;BME280;11099;41.564;23.296;2023-06-24T11:41:52;97388.47;;;34.31;51.24
21869;BME280;11099;41.564;23.296;2023-06-24T11:44:19;97344.88;;;34.02;49.60
21869;BME280;11099;41.564;23.296;2023-06-24T11:46:46;97362.78;;;34.40;49.09
21869;BME280;11099;41.564;23.296;2023-06-24T11:49:11;97376.81;;;34.60;49.95
21869;BME280;11099;41.564;23.296;2023-06-24T11:51:48;97359.19;;;34.57;49.45
21869;BME280;11099;41.564;23.296;2023-06-24T11:54:16;97331.69;;;33.97;50.61
21869;BME280;11099;41.564;23.296;2023-06-24T11:56:43;97255.25;;;33.61;50.39
21869;BME280;11099;41.564;23.296;2023-06-24T11:59:16;97349.41;;;34.14;49.39
21869;BME280;11099;41.564;23.296;2023-06-24T12:01:51;97333.69;;;33.87;49.01
21869;BME280;11099;41.564;23.296;2023-06-24T12:04:17;97358.94;;;33.34;49.05
21869;BME280;11099;41.564;23.296;2023-06-24T12:06:43;97400.34;;;33.43;50.30
21869;BME280;11099;41.564;23.296;2023-06-24T12:09:09;97382.41;;;33.20;51.60
21869;BME280;11099;41.564;23.296;2023-06-24T12:11:35;97367.59;;;32.50;53.13
21869;BME280;11099;41.564;23.296;2023-06-24T12:14:01;97376.03;;;32.15;53.82
21869;BME280;11099;41.564;23.296;2023-06-24T12:16:27;97321.69;;;32.07;54.02
21869;BME280;11099;41.564;23.296;2023-06-24T12:18:53;97354.72;;;32.38;54.06
21869;BME280;11099;41.564;23.296;2023-06-24T12:21:18;97310.25;;;32.17;53.37
21869;BME280;11099;41.564;23.296;2023-06-24T12:23:44;97335.63;;;32.12;54.16
21869;BME280;11099;41.564;23.296;2023-06-24T12:26:10;97375.47;;;32.20;55.28
21869;BME280;11099;41.564;23.296;2023-06-24T12:28:36;97388.25;;;32.36;56.17
21869;BME280;11099;41.564;23.296;2023-06-24T12:31:01;97399.44;;;32.51;55.21
21869;BME280;11099;41.564;23.296;2023-06-24T12:33:27;97283.53;;;31.56;54.96
21869;BME280;11099;41.564;23.296;2023-06-24T12:35:53;97388.72;;;32.44;56.13
21869;BME280;11099;41.564;23.296;2023-06-24T12:38:18;97410.75;;;32.44;56.36
21869;BME280;11099;41.564;23.296;2023-06-24T12:40:44;97395.38;;;32.34;57.60
21869;BME280;11099;41.564;23.296;2023-06-24T12:43:10;97387.38;;;32.17;56.65
21869;BME280;11099;41.564;23.296;2023-06-24T12:45:40;97371.66;;;31.87;56.75
21869;BME280;11099;41.564;23.296;2023-06-24T12:48:05;97393.56;;;31.99;57.06
21869;BME280;11099;41.564;23.296;2023-06-24T12:50:31;97433.63;;;32.00;57.36
21869;BME280;11099;41.564;23.296;2023-06-24T12:52:59;97463.06;;;31.69;60.91
21869;BME280;11099;41.564;23.296;2023-06-24T12:55:25;97408.19;;;30.23;57.63
21869;BME280;11099;41.564;23.296;2023-06-24T12:57:50;97402.44;;;28.88;60.18
21869;BME280;11099;41.564;23.296;2023-06-24T13:00:19;97421.81;;;28.13;58.07
21869;BME280;11099;41.564;23.296;2023-06-24T13:02:44;97490.75;;;28.80;58.12
21869;BME280;11099;41.564;23.296;2023-06-24T13:05:10;97403.16;;;27.71;60.75
21869;BME280;11099;41.564;23.296;2023-06-24T13:07:35;97513.97;;;27.99;63.18
21869;BME280;11099;41.564;23.296;2023-06-24T13:10:01;97521.31;;;27.82;64.51
21869;BME280;11099;41.564;23.296;2023-06-24T13:12:27;97487.13;;;27.27;65.67
21869;BME280;11099;41.564;23.296;2023-06-24T13:14:52;97460.91;;;26.29;67.39